createdAt,value
2023-03-16T00:00:15.943Z,45.65
2023-03-16T00:02:22.965Z,45.03
2023-03-16T00:04:30.407Z,45.75
2023-03-16T00:06:39.483Z,48.03
2023-03-16T00:08:46.614Z,49.00
2023-03-16T00:10:55.080Z,49.03
2023-03-16T00:13:03.790Z,47.95
2023-03-16T00:15:11.434Z,47.38
2023-03-16T00:17:21.584Z,47.40
2023-03-16T00:19:28.512Z,47.63
2023-03-16T00:21:36.358Z,45.95
2023-03-16T00:23:44.977Z,46.30
2023-03-16T00:25:54.896Z,43.35
2023-03-16T00:28:04.610Z,45.55
2023-03-16T00:30:14.144Z,44.27
2023-03-16T00:32:22.298Z,43.72
2023-03-16T00:34:31.118Z,41.63
2023-03-16T00:36:39.304Z,41.58
2023-03-16T00:38:49.371Z,42.05
2023-03-16T00:40:56.195Z,41.40
2023-03-16T00:43:04.041Z,40.83
2023-03-16T00:45:13.020Z,40.63
2023-03-16T00:47:20.258Z,38.72
2023-03-16T00:49:27.669Z,39.20
2023-03-16T00:51:35.021Z,38.92
2023-03-16T00:53:42.404Z,38.67
2023-03-16T00:55:51.235Z,38.70
2023-03-16T00:57:58.260Z,36.08
2023-03-16T01:00:13.726Z,36.45
2023-03-16T01:02:24.501Z,36.10
2023-03-16T01:04:31.985Z,35.55
2023-03-16T01:06:39.993Z,36.47
2023-03-16T01:08:47.954Z,36.03
2023-03-16T01:10:56.600Z,30.95
2023-03-16T01:13:04.436Z,31.02
2023-03-16T01:15:13.114Z,33.03
2023-03-16T01:17:20.962Z,32.88
2023-03-16T01:19:29.528Z,32.28
2023-03-16T01:21:39.316Z,33.60
2023-03-16T01:23:46.668Z,30.63
2023-03-16T01:25:56.857Z,35.30
2023-03-16T01:28:04.706Z,34.85
2023-03-16T01:30:13.482Z,32.80
2023-03-16T01:32:20.348Z,34.05
2023-03-16T01:34:27.653Z,32.95
2023-03-16T01:36:35.478Z,32.55
2023-03-16T01:38:44.816Z,32.50
2023-03-16T01:40:52.820Z,32.53
2023-03-16T01:43:07.784Z,31.58
2023-03-16T01:45:55.614Z,30.25
2023-03-16T01:48:03.612Z,29.85
2023-03-16T01:50:10.946Z,29.75
2023-03-16T01:52:25.706Z,29.45
2023-03-16T01:54:36.835Z,28.30
2023-03-16T01:56:48.618Z,27.63
2023-03-16T01:58:59.743Z,27.52
2023-03-16T02:01:07.768Z,26.45
2023-03-16T02:03:16.619Z,25.98
2023-03-16T02:05:34.295Z,24.83
2023-03-16T02:07:46.351Z,25.45
2023-03-16T02:09:57.267Z,24.60
2023-03-16T02:12:04.341Z,24.42
2023-03-16T02:14:16.946Z,25.42
2023-03-16T02:16:24.090Z,23.83
2023-03-16T02:18:32.131Z,24.15
2023-03-16T02:20:45.506Z,22.80
2023-03-16T02:22:56.119Z,23.80
2023-03-16T02:25:03.606Z,26.13
2023-03-16T02:27:13.533Z,24.33
2023-03-16T02:29:35.173Z,23.95
2023-03-16T02:31:44.612Z,23.88
2023-03-16T02:33:52.557Z,24.13
2023-03-16T02:36:00.548Z,23.45
2023-03-16T02:38:08.456Z,23.80
2023-03-16T02:40:26.766Z,24.08
2023-03-16T02:42:36.031Z,21.95
2023-03-16T02:44:44.800Z,23.15
2023-03-16T02:46:55.631Z,23.23
2023-03-16T02:49:06.791Z,22.80
2023-03-16T02:51:14.128Z,22.83
2023-03-16T02:53:21.928Z,21.85
2023-03-16T02:55:28.956Z,22.77
2023-03-16T02:57:36.234Z,21.77
2023-03-16T02:59:48.896Z,21.35
2023-03-16T03:01:57.969Z,23.70
2023-03-16T03:04:05.060Z,20.98
2023-03-16T03:06:12.179Z,22.67
2023-03-16T03:08:21.412Z,22.05
2023-03-16T03:10:28.983Z,20.98
2023-03-16T03:12:38.126Z,21.58
2023-03-16T03:14:48.226Z,21.23
2023-03-16T03:16:59.555Z,21.15
2023-03-16T03:19:06.790Z,22.00
2023-03-16T03:21:17.611Z,19.65
2023-03-16T03:23:25.299Z,21.00
2023-03-16T03:25:35.808Z,20.33
2023-03-16T03:27:44.045Z,22.13
2023-03-16T03:29:54.013Z,20.20
2023-03-16T03:32:03.039Z,20.17
2023-03-16T03:34:10.530Z,21.00
2023-03-16T03:36:18.169Z,20.35
2023-03-16T03:38:26.218Z,21.20
2023-03-16T03:40:34.783Z,18.90
2023-03-16T03:42:43.813Z,21.40
2023-03-16T03:44:51.306Z,20.20
2023-03-16T03:46:58.236Z,19.90
2023-03-16T03:49:08.227Z,19.70
2023-03-16T03:51:15.608Z,20.17
2023-03-16T03:53:26.016Z,19.80
2023-03-16T03:55:50.912Z,19.63
2023-03-16T03:57:58.195Z,19.92
2023-03-16T04:00:08.862Z,20.00
2023-03-16T04:02:23.748Z,19.65
2023-03-16T04:04:35.517Z,20.08
2023-03-16T04:06:42.802Z,19.25
2023-03-16T04:08:49.722Z,18.92
2023-03-16T04:11:00.545Z,19.05
2023-03-16T04:13:07.562Z,20.17
2023-03-16T04:15:15.566Z,18.38
2023-03-16T04:17:40.817Z,18.95
2023-03-16T04:19:51.586Z,19.48
2023-03-16T04:21:59.539Z,19.73
2023-03-16T04:24:07.281Z,20.77
2023-03-16T04:26:16.169Z,19.50
2023-03-16T04:28:27.432Z,18.42
2023-03-16T04:30:36.115Z,19.20
2023-03-16T04:32:55.948Z,20.33
2023-03-16T04:35:05.670Z,19.52
2023-03-16T04:37:26.725Z,20.77
2023-03-16T04:39:33.905Z,18.50
2023-03-16T04:41:40.831Z,19.75
2023-03-16T04:43:56.460Z,19.00
2023-03-16T04:46:05.629Z,19.63
2023-03-16T04:48:14.362Z,19.17
2023-03-16T04:50:23.741Z,19.77
2023-03-16T04:52:33.490Z,19.73
2023-03-16T04:54:41.841Z,19.15
2023-03-16T04:56:49.795Z,18.63
2023-03-16T04:59:09.724Z,19.90
2023-03-16T05:01:24.905Z,20.02
2023-03-16T05:03:35.913Z,20.63
2023-03-16T05:05:46.509Z,19.88
2023-03-16T05:07:55.139Z,19.00
2023-03-16T05:10:03.351Z,19.73
2023-03-16T05:12:10.937Z,20.00
2023-03-16T05:14:18.990Z,19.50
2023-03-16T05:16:37.793Z,19.30
2023-03-16T05:18:45.130Z,20.90
2023-03-16T05:20:56.929Z,19.98
2023-03-16T05:23:10.143Z,19.60
2023-03-16T05:25:25.158Z,19.92
2023-03-16T05:27:35.328Z,20.17
2023-03-16T05:29:47.764Z,20.23
2023-03-16T05:31:55.557Z,19.02
2023-03-16T05:34:05.149Z,20.13
2023-03-16T05:36:14.739Z,19.35
2023-03-16T05:38:25.963Z,19.25
2023-03-16T05:40:34.684Z,20.40
2023-03-16T05:42:53.843Z,20.08
2023-03-16T05:45:02.049Z,19.48
2023-03-16T05:47:23.162Z,20.43
2023-03-16T05:49:35.568Z,19.33
2023-03-16T05:51:49.042Z,19.65
2023-03-16T05:53:57.766Z,18.60
2023-03-16T05:56:22.503Z,19.85
2023-03-16T05:58:30.147Z,19.85
2023-03-16T06:00:38.759Z,19.67
2023-03-16T06:02:56.971Z,20.33
2023-03-16T06:05:10.140Z,20.98
2023-03-16T06:07:22.833Z,20.83
2023-03-16T06:09:33.193Z,21.10
2023-03-16T06:11:42.827Z,21.00
2023-03-16T06:13:50.522Z,21.00
2023-03-16T06:15:57.876Z,21.58
2023-03-16T06:18:05.706Z,20.70
2023-03-16T06:20:15.036Z,20.98
2023-03-16T06:22:25.963Z,20.10
2023-03-16T06:24:33.193Z,21.00
2023-03-16T06:26:40.839Z,21.00
2023-03-16T06:28:52.264Z,21.95
2023-03-16T06:31:00.133Z,20.95
2023-03-16T06:33:11.949Z,20.52
2023-03-16T06:35:19.443Z,19.63
2023-03-16T06:37:44.148Z,20.30
2023-03-16T06:40:11.947Z,20.50
2023-03-16T06:42:20.056Z,20.85
2023-03-16T06:44:27.191Z,20.50
2023-03-16T06:46:42.974Z,21.80
2023-03-16T06:48:50.810Z,22.35
2023-03-16T06:50:58.823Z,20.33
2023-03-16T06:53:09.356Z,21.45
2023-03-16T06:55:17.220Z,19.65
2023-03-16T06:57:26.453Z,21.02
2023-03-16T06:59:34.043Z,20.65
2023-03-16T07:01:40.965Z,21.20
2023-03-16T07:03:48.676Z,20.60
2023-03-16T07:06:00.856Z,21.25
2023-03-16T07:08:10.393Z,20.35
2023-03-16T07:10:19.059Z,19.80
2023-03-16T07:12:26.243Z,21.45
2023-03-16T07:14:33.525Z,19.15
2023-03-16T07:16:41.199Z,21.23
2023-03-16T07:18:49.532Z,21.30
2023-03-16T07:20:58.859Z,22.67
2023-03-16T07:23:08.343Z,21.60
2023-03-16T07:25:16.055Z,21.17
2023-03-16T07:27:28.748Z,21.45
2023-03-16T07:29:37.569Z,20.77
2023-03-16T07:31:44.553Z,21.13
2023-03-16T07:33:58.434Z,19.70
2023-03-16T07:36:14.086Z,19.88
2023-03-16T07:38:28.258Z,21.33
2023-03-16T07:40:35.901Z,20.88
2023-03-16T07:42:50.559Z,20.80
2023-03-16T07:45:15.557Z,19.77
2023-03-16T07:47:26.244Z,20.98
2023-03-16T07:49:37.140Z,21.30
2023-03-16T07:51:44.526Z,21.42
2023-03-16T07:53:53.655Z,22.30
2023-03-16T07:56:07.748Z,22.05
2023-03-16T07:58:18.220Z,21.60
2023-03-16T08:00:27.869Z,21.70
2023-03-16T08:02:35.710Z,22.40
2023-03-16T08:04:44.005Z,22.55
2023-03-16T08:06:54.917Z,21.95
2023-03-16T08:09:06.814Z,22.73
2023-03-16T08:11:16.398Z,22.15
2023-03-16T08:13:31.210Z,22.55
2023-03-16T08:15:38.634Z,20.88
2023-03-16T08:17:51.721Z,21.15
2023-03-16T08:20:03.507Z,23.05
2023-03-16T08:22:10.793Z,21.73
2023-03-16T08:26:30.633Z,21.20
2023-03-16T08:28:38.802Z,21.13
2023-03-16T08:30:50.454Z,21.92
2023-03-16T08:33:08.857Z,21.55
2023-03-16T08:35:18.513Z,23.10
2023-03-16T08:37:27.350Z,22.70
2023-03-16T08:39:37.335Z,22.27
2023-03-16T08:41:49.322Z,22.08
2023-03-16T08:44:04.236Z,22.13
2023-03-16T08:46:12.777Z,22.75
2023-03-16T08:48:31.911Z,21.95
2023-03-16T08:50:39.243Z,23.35
2023-03-16T08:52:46.170Z,22.67
2023-03-16T08:55:02.976Z,22.25
2023-03-16T08:57:11.695Z,21.98
2023-03-16T08:59:29.189Z,22.48
2023-03-16T09:01:36.828Z,21.08
2023-03-16T09:03:47.388Z,21.10
2023-03-16T09:05:54.241Z,20.90
2023-03-16T09:08:01.498Z,21.20
2023-03-16T09:10:12.908Z,20.60
2023-03-16T09:12:21.792Z,21.17
2023-03-16T09:14:28.756Z,21.08
2023-03-16T09:16:36.799Z,21.20
2023-03-16T09:18:43.938Z,21.60
2023-03-16T09:20:51.096Z,20.70
2023-03-16T09:22:58.709Z,20.05
2023-03-16T09:25:06.659Z,20.25
2023-03-16T09:27:16.383Z,21.42
2023-03-16T09:29:23.592Z,20.77
2023-03-16T09:31:30.548Z,20.92
2023-03-16T09:33:38.207Z,21.63
2023-03-16T09:35:46.002Z,21.05
2023-03-16T09:38:05.605Z,21.13
2023-03-16T09:40:26.525Z,21.83
2023-03-16T09:42:40.058Z,20.98
2023-03-16T09:44:57.494Z,21.65
2023-03-16T09:47:07.167Z,22.38
2023-03-16T09:49:16.960Z,21.45
2023-03-16T09:51:33.723Z,20.65
2023-03-16T09:53:43.674Z,20.90
2023-03-16T09:55:56.429Z,21.13
2023-03-16T10:00:21.334Z,20.75
2023-03-16T10:02:47.565Z,20.02
2023-03-16T10:05:03.011Z,20.25
2023-03-16T10:07:23.071Z,21.40
2023-03-16T10:09:36.654Z,20.55
2023-03-16T10:11:45.524Z,21.20
2023-03-16T10:13:58.136Z,20.80
2023-03-16T10:16:10.814Z,20.40
2023-03-16T10:18:21.864Z,20.38
2023-03-16T10:20:34.065Z,20.70
2023-03-16T10:22:45.802Z,20.88
2023-03-16T10:25:13.785Z,21.02
2023-03-16T10:27:28.301Z,20.55
2023-03-16T10:29:39.912Z,20.98
2023-03-16T10:31:47.180Z,21.23
2023-03-16T10:34:01.235Z,20.73
2023-03-16T10:36:16.676Z,21.08
2023-03-16T10:38:44.225Z,20.15
2023-03-16T10:40:51.409Z,20.13
2023-03-16T10:42:58.482Z,20.83
2023-03-16T10:45:07.660Z,20.33
2023-03-16T10:47:24.020Z,20.85
2023-03-16T10:49:33.926Z,20.92
2023-03-16T10:51:41.633Z,21.13
2023-03-16T10:53:49.095Z,20.80
2023-03-16T10:56:01.698Z,21.42
2023-03-16T10:58:09.086Z,21.85
2023-03-16T11:00:23.896Z,21.40
2023-03-16T11:02:36.454Z,21.25
2023-03-16T11:04:43.535Z,21.95
2023-03-16T11:06:57.078Z,22.80
2023-03-16T11:09:10.443Z,22.98
2023-03-16T11:11:21.467Z,22.48
2023-03-16T11:13:35.062Z,22.87
2023-03-16T11:15:51.089Z,21.98
2023-03-16T11:18:00.677Z,22.85
2023-03-16T11:20:19.081Z,22.75
2023-03-16T11:22:27.990Z,22.80
2023-03-16T11:24:43.314Z,23.30
2023-03-16T11:26:57.052Z,23.90
2023-03-16T11:29:10.785Z,24.85
2023-03-16T11:31:25.464Z,25.35
2023-03-16T11:33:35.905Z,27.55
2023-03-16T11:35:58.649Z,30.08
2023-03-16T11:38:17.003Z,28.75
2023-03-16T11:40:39.840Z,27.33
2023-03-16T11:42:59.820Z,26.42
2023-03-16T11:45:22.009Z,25.85
2023-03-16T11:47:44.703Z,25.05
2023-03-16T11:50:02.993Z,25.95
2023-03-16T11:52:20.622Z,25.83
2023-03-16T11:54:44.127Z,26.15
2023-03-16T11:56:58.244Z,27.65
2023-03-16T11:59:29.280Z,28.15
2023-03-16T12:04:43.479Z,27.33
2023-03-16T12:07:04.082Z,27.13
2023-03-16T12:09:45.457Z,27.55
2023-03-16T12:14:27.875Z,27.92
2023-03-16T12:16:53.835Z,28.60
2023-03-16T12:19:34.983Z,27.80
2023-03-16T12:21:58.853Z,28.15
2023-03-16T12:26:45.978Z,28.20
2023-03-16T12:39:38.297Z,29.23
2023-03-16T12:44:18.982Z,29.83
2023-03-16T12:46:48.009Z,30.95
2023-03-16T12:49:01.536Z,30.85
2023-03-16T12:51:10.508Z,30.73
2023-03-16T12:53:38.181Z,28.77
2023-03-16T12:55:48.126Z,29.35
2023-03-16T12:58:04.411Z,29.05
2023-03-16T13:00:14.926Z,28.38
2023-03-16T13:02:24.620Z,32.30
2023-03-16T13:04:38.399Z,31.25
2023-03-16T13:06:55.985Z,31.48
2023-03-16T13:11:31.641Z,30.55
2023-03-16T13:13:48.066Z,30.60
2023-03-16T13:16:08.601Z,31.25
2023-03-16T13:18:33.846Z,31.20
2023-03-16T13:23:26.096Z,31.70
2023-03-16T13:25:45.811Z,30.95
2023-03-16T13:30:06.377Z,39.92
2023-03-16T13:32:22.313Z,40.70
2023-03-16T13:34:33.251Z,35.28
2023-03-16T13:36:40.681Z,34.63
2023-03-16T13:38:59.834Z,34.15
2023-03-16T13:41:14.027Z,32.97
2023-03-16T13:43:24.845Z,33.08
2023-03-16T13:45:34.957Z,33.35
2023-03-16T13:47:47.091Z,34.17
2023-03-16T13:52:01.819Z,34.83
2023-03-16T13:54:19.901Z,36.22
2023-03-16T13:56:32.780Z,32.95
2023-03-16T13:58:42.509Z,33.60
2023-03-16T14:00:50.571Z,34.25
2023-03-16T14:02:58.870Z,35.03
2023-03-16T14:05:15.574Z,36.63
2023-03-16T14:07:25.774Z,35.17
2023-03-16T14:09:36.082Z,33.72
2023-03-16T14:11:45.672Z,32.65
2023-03-16T14:13:56.793Z,34.80
2023-03-16T14:16:06.811Z,33.88
2023-03-16T14:18:22.944Z,36.38
2023-03-16T14:20:31.524Z,35.38
2023-03-16T14:22:41.903Z,36.58
2023-03-16T14:24:59.262Z,35.00
2023-03-16T14:27:29.507Z,35.55
2023-03-16T14:29:36.667Z,37.38
2023-03-16T14:31:43.913Z,36.20
2023-03-16T14:33:51.144Z,34.33
2023-03-16T14:35:59.562Z,35.33
2023-03-16T14:38:26.089Z,34.15
2023-03-16T14:40:34.708Z,37.72
2023-03-16T14:42:43.883Z,37.50
2023-03-16T14:44:51.529Z,37.70
2023-03-16T14:46:59.237Z,35.92
2023-03-16T14:49:13.314Z,35.30
2023-03-16T14:51:22.648Z,36.85
2023-03-16T14:53:29.986Z,34.47
2023-03-16T14:55:37.349Z,37.10
2023-03-16T14:57:46.608Z,36.58
2023-03-16T14:59:53.717Z,34.97
2023-03-16T15:02:01.547Z,35.55
2023-03-16T15:04:09.523Z,38.78
2023-03-16T15:06:16.511Z,51.50
2023-03-16T15:08:28.142Z,59.08
2023-03-16T15:10:38.033Z,38.30
2023-03-16T15:12:55.004Z,39.60
2023-03-16T15:15:20.065Z,37.83
2023-03-16T15:17:28.101Z,38.88
2023-03-16T15:19:34.954Z,40.88
2023-03-16T15:21:42.563Z,41.83
2023-03-16T15:23:50.358Z,40.65
2023-03-16T15:26:01.177Z,39.20
2023-03-16T15:28:15.722Z,59.08
2023-03-16T15:30:26.817Z,41.60
2023-03-16T15:32:34.110Z,55.55
2023-03-16T15:34:41.064Z,78.93
2023-03-16T15:36:47.990Z,55.00
2023-03-16T15:38:56.589Z,64.40
2023-03-16T15:41:03.716Z,64.72
2023-03-16T15:43:14.238Z,50.85
2023-03-16T15:45:23.226Z,53.58
2023-03-16T15:47:30.427Z,43.63
2023-03-16T15:49:47.276Z,45.97
2023-03-16T15:51:55.020Z,43.60
2023-03-16T15:54:03.666Z,47.67
2023-03-16T15:56:13.499Z,47.78
2023-03-16T15:58:25.457Z,46.05
2023-03-16T16:00:34.512Z,47.30
2023-03-16T16:02:41.232Z,49.15
2023-03-16T16:04:50.156Z,49.17
2023-03-16T16:06:57.739Z,49.42
2023-03-16T16:09:04.568Z,51.47
2023-03-16T16:11:17.992Z,56.88
2023-03-16T16:13:45.496Z,52.53
2023-03-16T16:15:54.297Z,52.05
2023-03-16T16:18:20.851Z,54.60
2023-03-16T16:20:30.086Z,50.75
2023-03-16T16:22:38.039Z,55.25
2023-03-16T16:24:44.695Z,61.92
2023-03-16T16:26:55.125Z,66.43
2023-03-16T16:29:05.851Z,72.13
2023-03-16T16:31:16.534Z,73.65
2023-03-16T16:33:29.537Z,72.95
2023-03-16T16:37:57.151Z,78.35
2023-03-16T16:40:04.455Z,82.22
2023-03-16T16:42:14.620Z,86.70
2023-03-16T16:44:25.581Z,90.50
2023-03-16T16:46:42.888Z,93.60
2023-03-16T16:48:51.529Z,87.55
2023-03-16T16:50:58.947Z,81.68
2023-03-16T16:53:05.765Z,73.47
2023-03-16T16:55:12.920Z,72.43
2023-03-16T16:57:22.876Z,75.95
2023-03-16T16:59:35.632Z,63.67
2023-03-16T17:01:43.920Z,55.25
2023-03-16T17:03:50.935Z,62.00
2023-03-16T17:05:58.957Z,64.90
2023-03-16T17:08:06.163Z,74.05
2023-03-16T17:10:18.809Z,59.42
2023-03-16T17:12:29.744Z,57.40
2023-03-16T17:14:38.313Z,56.53
2023-03-16T17:16:45.729Z,53.25
2023-03-16T17:18:53.313Z,58.40
2023-03-16T17:21:00.449Z,53.50
2023-03-16T17:23:21.729Z,57.53
2023-03-16T17:25:29.091Z,57.53
2023-03-16T17:27:36.290Z,61.15
2023-03-16T17:29:45.479Z,69.70
2023-03-16T17:31:53.127Z,67.75
2023-03-16T17:34:00.411Z,73.30
2023-03-16T17:36:07.707Z,63.13
2023-03-16T17:38:21.554Z,61.25
2023-03-16T17:40:29.195Z,59.88
2023-03-16T17:42:37.221Z,66.57
2023-03-16T17:44:47.591Z,67.45
2023-03-16T17:46:55.768Z,67.28
2023-03-16T17:49:03.393Z,69.07
2023-03-16T17:51:17.616Z,53.13
2023-03-16T17:53:24.594Z,55.33
2023-03-16T17:55:31.989Z,55.00
2023-03-16T17:57:39.726Z,55.97
2023-03-16T17:59:48.806Z,56.45
2023-03-16T18:01:56.044Z,56.92
2023-03-16T18:04:03.101Z,59.20
2023-03-16T18:06:10.705Z,64.10
2023-03-16T18:08:21.508Z,63.05
2023-03-16T18:10:30.521Z,53.72
2023-03-16T18:12:38.034Z,53.08
2023-03-16T18:14:48.395Z,96.72
2023-03-16T18:16:55.939Z,95.97
2023-03-16T18:19:06.699Z,75.82
2023-03-16T18:21:20.391Z,69.70
2023-03-16T18:23:28.620Z,71.05
2023-03-16T18:25:40.176Z,74.05
2023-03-16T18:27:46.999Z,76.07
2023-03-16T18:29:56.022Z,82.75
2023-03-16T18:32:03.099Z,78.78
2023-03-16T18:34:12.486Z,93.75
2023-03-16T18:36:23.197Z,104.68
2023-03-16T18:38:34.171Z,89.73
2023-03-16T18:40:41.304Z,85.47
2023-03-16T18:42:48.534Z,85.05
2023-03-16T18:44:57.507Z,84.03
2023-03-16T18:47:06.225Z,78.25
2023-03-16T18:49:21.090Z,76.97
2023-03-16T18:51:28.319Z,73.85
2023-03-16T18:53:36.680Z,72.43
2023-03-16T18:55:45.926Z,64.22
2023-03-16T18:57:57.398Z,69.60
2023-03-16T19:00:06.929Z,73.22
2023-03-16T19:02:28.896Z,76.40
2023-03-16T19:04:36.033Z,81.13
2023-03-16T19:06:43.190Z,71.18
2023-03-16T19:08:49.987Z,66.63
2023-03-16T19:10:59.326Z,62.78
2023-03-16T19:13:06.398Z,62.10
2023-03-16T19:15:23.007Z,63.03
2023-03-16T19:17:29.877Z,63.47
2023-03-16T19:19:37.054Z,63.33
2023-03-16T19:21:43.999Z,64.40
2023-03-16T19:23:55.633Z,62.78
2023-03-16T19:26:02.693Z,63.80
2023-03-16T19:28:15.150Z,61.88
2023-03-16T19:30:29.805Z,59.65
2023-03-16T19:32:37.392Z,57.53
2023-03-16T19:34:44.269Z,53.95
2023-03-16T19:36:51.557Z,52.10
2023-03-16T19:38:58.492Z,50.20
2023-03-16T19:41:05.666Z,47.25
2023-03-16T19:43:20.448Z,43.13
2023-03-16T19:45:34.345Z,43.53
2023-03-16T19:47:41.399Z,42.42
2023-03-16T19:49:48.526Z,42.00
2023-03-16T19:51:56.786Z,40.88
2023-03-16T19:54:04.070Z,39.72
2023-03-16T19:56:17.804Z,40.63
2023-03-16T19:58:33.220Z,40.38
2023-03-16T20:00:42.790Z,39.38
2023-03-16T20:02:50.359Z,39.22
2023-03-16T20:04:58.783Z,39.45
2023-03-16T20:07:06.666Z,38.83
2023-03-16T20:09:15.946Z,39.30
2023-03-16T20:11:29.021Z,38.92
2023-03-16T20:13:37.289Z,39.05
2023-03-16T20:15:46.560Z,40.15
2023-03-16T20:17:54.348Z,39.50
2023-03-16T20:20:01.735Z,39.92
2023-03-16T20:22:15.470Z,37.72
2023-03-16T20:24:23.785Z,37.65
2023-03-16T20:26:33.941Z,39.67
2023-03-16T20:28:41.982Z,38.78
2023-03-16T20:30:51.779Z,38.42
2023-03-16T20:32:59.832Z,39.08
2023-03-16T20:35:08.398Z,40.65
2023-03-16T20:37:26.639Z,39.88
2023-03-16T20:39:33.946Z,37.30
2023-03-16T20:41:41.357Z,38.47
2023-03-16T20:43:48.758Z,37.90
2023-03-16T20:46:02.393Z,37.67
2023-03-16T20:48:17.506Z,39.00
2023-03-16T20:50:30.621Z,39.53
2023-03-16T20:52:37.483Z,39.10
2023-03-16T20:54:44.972Z,38.88
2023-03-16T20:56:54.590Z,38.60
2023-03-16T20:59:02.667Z,39.50
2023-03-16T21:01:24.247Z,37.05
2023-03-16T21:03:36.534Z,36.20
2023-03-16T21:05:45.455Z,38.55
2023-03-16T21:07:56.685Z,39.53
2023-03-16T21:10:03.555Z,39.83
2023-03-16T21:12:17.703Z,38.13
2023-03-16T21:14:27.390Z,37.22
2023-03-16T21:16:37.235Z,39.67
2023-03-16T21:18:44.521Z,37.70
2023-03-16T21:20:52.979Z,38.95
2023-03-16T21:23:00.574Z,39.08
2023-03-16T21:25:09.963Z,38.63
2023-03-16T21:27:36.081Z,37.72
2023-03-16T21:29:43.470Z,37.53
2023-03-16T21:31:52.751Z,39.20
2023-03-16T21:34:01.318Z,39.90
2023-03-16T21:36:10.645Z,38.85
2023-03-16T21:38:20.086Z,38.00
2023-03-16T21:40:27.469Z,35.30
2023-03-16T21:42:35.468Z,36.47
2023-03-16T21:44:44.449Z,38.50
2023-03-16T21:46:55.683Z,38.15
2023-03-16T21:49:04.582Z,37.00
2023-03-16T21:51:17.146Z,36.03
2023-03-16T21:53:27.079Z,36.75
2023-03-16T21:55:37.249Z,36.67
2023-03-16T21:57:44.886Z,37.28
2023-03-16T21:59:59.390Z,39.05
2023-03-16T22:02:22.292Z,39.20
2023-03-16T22:04:33.513Z,37.03
2023-03-16T22:06:43.666Z,38.03
2023-03-16T22:08:52.287Z,38.90
2023-03-16T22:11:00.100Z,39.60
2023-03-16T22:13:07.257Z,39.20
2023-03-16T22:15:16.998Z,38.72
2023-03-16T22:17:29.082Z,39.80
2023-03-16T22:19:40.031Z,37.78
2023-03-16T22:21:48.230Z,37.05
2023-03-16T22:23:56.016Z,38.38
2023-03-16T22:26:04.073Z,40.65
2023-03-16T22:28:16.372Z,43.05
2023-03-16T22:30:25.757Z,43.85
2023-03-16T22:32:34.712Z,43.63
2023-03-16T22:34:46.074Z,42.05
2023-03-16T22:36:53.347Z,41.55
2023-03-16T22:39:03.808Z,42.42
2023-03-16T22:41:23.529Z,45.83
2023-03-16T22:43:33.984Z,42.95
2023-03-16T22:45:41.901Z,44.28
2023-03-16T22:47:51.650Z,43.42
2023-03-16T22:49:59.784Z,43.08
2023-03-16T22:52:07.117Z,42.00
2023-03-16T22:54:20.954Z,40.88
2023-03-16T22:56:28.802Z,42.25
2023-03-16T22:58:38.956Z,40.80
2023-03-16T23:00:46.576Z,42.88
2023-03-16T23:02:55.519Z,45.03
2023-03-16T23:05:05.250Z,44.35
2023-03-16T23:07:17.258Z,41.80
2023-03-16T23:09:27.512Z,43.88
2023-03-16T23:11:37.805Z,43.42
2023-03-16T23:13:46.175Z,42.17
2023-03-16T23:15:56.396Z,44.83
2023-03-16T23:18:06.170Z,43.13
2023-03-16T23:20:22.632Z,44.05
2023-03-16T23:22:31.746Z,42.00
2023-03-16T23:24:39.140Z,44.20
2023-03-16T23:26:46.009Z,41.58
2023-03-16T23:28:54.012Z,40.53
2023-03-16T23:31:01.236Z,40.40
2023-03-16T23:33:09.900Z,42.20
2023-03-16T23:35:22.933Z,40.92
2023-03-16T23:37:29.853Z,39.40
2023-03-16T23:39:37.495Z,39.97
2023-03-16T23:41:49.233Z,39.20
2023-03-16T23:43:58.935Z,39.42
2023-03-16T23:46:06.265Z,40.55
2023-03-16T23:48:20.658Z,39.33
2023-03-16T23:50:30.670Z,39.63
2023-03-16T23:52:38.041Z,39.20
2023-03-16T23:54:44.918Z,38.55
2023-03-16T23:56:54.720Z,40.45
2023-03-16T23:59:01.583Z,39.85
